createdAt,value
2019-05-02T00:03:14.467Z,100440.44
2019-05-02T00:08:18.316Z,100433.92
2019-05-02T00:13:21.812Z,100432.15
2019-05-02T00:18:25.892Z,100431.25
2019-05-02T00:23:29.463Z,100428.49
2019-05-02T00:28:32.983Z,100429.38
2019-05-02T00:33:36.417Z,100424.17
2019-05-02T00:38:39.968Z,100423.42
2019-05-02T00:43:43.329Z,100418.45
2019-05-02T00:48:54.254Z,100415.63
2019-05-02T00:53:56.381Z,100414.32
2019-05-02T00:59:02.363Z,100408.77
2019-05-02T01:04:15.855Z,100406.30
2019-05-02T01:09:19.259Z,100402.42
2019-05-02T01:14:26.812Z,100398.19
2019-05-02T01:19:27.809Z,100393.07
2019-05-02T01:24:34.234Z,100393.95
2019-05-02T01:29:37.996Z,100394.38
2019-05-02T01:34:54.214Z,100400.02
2019-05-02T01:39:54.038Z,100388.75
2019-05-02T01:44:57.451Z,100389.65
2019-05-02T01:50:00.882Z,100383.58
2019-05-02T01:55:06.244Z,100382.30
2019-05-02T02:00:11.733Z,100383.21
2019-05-02T02:05:15.143Z,100376.75
2019-05-02T02:10:19.871Z,100385.81
2019-05-02T02:15:25.029Z,100383.52
2019-05-02T02:20:30.976Z,100373.56
2019-05-02T02:25:45.265Z,100370.02
2019-05-02T02:30:48.698Z,100368.25
2019-05-02T02:35:52.333Z,100367.05
2019-05-02T02:40:55.896Z,100365.67
2019-05-02T02:46:09.785Z,100358.27
2019-05-02T02:51:22.574Z,100349.05
2019-05-02T02:56:18.347Z,100352.91
2019-05-02T03:01:28.833Z,100352.99
2019-05-02T03:06:27.170Z,100350.58
2019-05-02T03:11:32.408Z,100355.27
2019-05-02T03:16:46.039Z,100351.17
2019-05-02T03:22:01.133Z,100351.50
2019-05-02T03:26:59.759Z,100352.22
2019-05-02T03:32:15.134Z,100347.62
2019-05-02T03:37:11.378Z,100351.28
2019-05-02T03:42:13.655Z,100345.67
2019-05-02T03:47:17.138Z,100347.61
2019-05-02T03:52:20.565Z,100345.69
2019-05-02T03:57:32.921Z,100348.29
2019-05-02T04:02:29.465Z,100348.97
2019-05-02T04:07:39.355Z,100344.87
2019-05-02T04:12:38.328Z,100342.59
2019-05-02T04:17:42.796Z,100341.66
2019-05-02T04:22:48.951Z,100338.92
2019-05-02T04:27:52.167Z,100336.40
2019-05-02T04:32:56.164Z,100326.23
2019-05-02T04:38:02.707Z,100321.41
2019-05-02T04:43:10.993Z,100321.41
2019-05-02T04:48:11.118Z,100315.70
2019-05-02T04:53:14.565Z,100316.62
2019-05-02T04:58:27.596Z,100311.89
2019-05-02T05:03:23.124Z,100313.61
2019-05-02T05:08:31.733Z,100311.08
2019-05-02T05:13:31.714Z,100304.94
2019-05-02T05:18:37.601Z,100310.06
2019-05-02T05:23:41.948Z,100311.66
2019-05-02T05:28:47.546Z,100309.56
2019-05-02T05:33:50.579Z,100307.26
2019-05-02T05:38:53.991Z,100306.16
2019-05-02T05:43:57.564Z,100311.27
2019-05-02T05:49:00.923Z,100314.66
2019-05-02T05:54:04.634Z,100302.88
2019-05-02T05:59:08.061Z,100311.99
2019-05-02T06:04:13.864Z,100307.28
2019-05-02T06:09:16.638Z,100304.06
2019-05-02T06:14:24.780Z,100307.53
2019-05-02T06:19:25.283Z,100293.38
2019-05-02T06:24:28.728Z,100297.14
2019-05-02T06:29:32.131Z,100292.48
2019-05-02T06:34:38.734Z,100284.37
2019-05-02T06:39:40.890Z,100278.69
2019-05-02T06:44:44.337Z,100284.08
2019-05-02T06:49:47.766Z,100278.97
2019-05-02T06:54:54.111Z,100277.26
2019-05-02T06:59:56.484Z,100278.12
2019-05-02T07:05:01.131Z,100270.58
2019-05-02T07:10:08.868Z,100276.30
2019-05-02T07:15:14.575Z,100275.55
2019-05-02T07:20:18.445Z,100273.80
2019-05-02T07:25:21.880Z,100267.66
2019-05-02T07:30:30.016Z,100265.73
2019-05-02T07:35:30.916Z,100270.91
2019-05-02T07:40:34.377Z,100268.45
2019-05-02T07:45:40.207Z,100267.53
2019-05-02T07:50:46.592Z,100268.71
2019-05-02T07:55:49.292Z,100267.09
2019-05-02T08:00:52.802Z,100264.88
2019-05-02T08:05:58.659Z,100267.11
2019-05-02T08:11:02.889Z,100266.33
2019-05-02T08:16:06.491Z,100270.20
2019-05-02T08:21:09.928Z,100267.23
2019-05-02T08:26:16.476Z,100260.87
2019-05-02T08:31:20.772Z,100263.22
2019-05-02T08:36:23.642Z,100259.86
2019-05-02T08:41:27.130Z,100267.87
2019-05-02T08:46:30.563Z,100270.30
2019-05-02T08:51:33.989Z,100263.99
2019-05-02T08:56:37.415Z,100264.45
2019-05-02T09:01:44.731Z,100259.61
2019-05-02T09:06:46.143Z,100246.34
2019-05-02T09:12:03.307Z,100248.72
2019-05-02T09:16:54.772Z,100254.28
2019-05-02T09:21:58.181Z,100248.75
2019-05-02T09:27:02.489Z,100250.37
2019-05-02T09:32:06.092Z,100246.70
2019-05-02T09:37:12.006Z,100243.59
2019-05-02T09:42:18.858Z,100237.95
2019-05-02T09:47:27.239Z,100233.33
2019-05-02T09:52:34.097Z,100218.27
2019-05-02T09:57:34.621Z,100208.05
2019-05-02T10:02:38.121Z,100212.67
2019-05-02T10:07:42.007Z,100217.20
2019-05-02T10:12:45.542Z,100205.13
2019-05-02T10:17:48.972Z,100190.56
2019-05-02T10:22:53.016Z,100187.48
2019-05-02T10:27:56.615Z,100174.33
2019-05-02T10:33:00.095Z,100173.34
2019-05-02T10:38:03.517Z,100160.45
2019-05-02T10:43:06.940Z,100152.20
2019-05-02T10:48:22.845Z,100148.45
2019-05-02T10:53:15.849Z,100131.50
2019-05-02T10:58:26.257Z,100131.50
2019-05-02T11:03:26.195Z,100111.02
2019-05-02T11:08:31.705Z,100111.02
2019-05-02T11:13:39.025Z,100122.92
2019-05-02T11:18:52.262Z,100118.63
2019-05-02T11:23:55.264Z,100101.95
2019-05-02T11:28:58.865Z,100104.16
2019-05-02T11:34:02.266Z,100092.69
2019-05-02T11:39:16.829Z,100093.14
2019-05-02T11:44:13.171Z,100086.58
2019-05-02T11:49:16.592Z,100072.03
2019-05-02T11:54:20.021Z,100060.71
2019-05-02T11:59:27.983Z,100060.06
2019-05-02T12:04:28.829Z,100057.41
2019-05-02T12:09:32.254Z,100050.84
2019-05-02T12:14:36.503Z,100042.45
2019-05-02T12:19:39.975Z,100038.72
2019-05-02T12:24:45.377Z,100039.52
2019-05-02T12:29:50.185Z,100023.93
2019-05-02T12:34:53.771Z,100024.62
2019-05-02T12:39:57.198Z,100017.20
2019-05-02T12:45:02.720Z,100023.53
2019-05-02T12:50:06.722Z,100014.20
2019-05-02T12:55:10.346Z,100016.75
2019-05-02T13:00:18.497Z,100015.81
2019-05-02T13:05:22.229Z,100000.28
2019-05-02T13:10:45.431Z,99999.13
2019-05-02T13:15:48.940Z,99990.33
2019-05-02T13:20:52.872Z,99981.45
2019-05-02T13:25:56.593Z,99976.89
2019-05-02T13:31:17.714Z,99971.88
2019-05-02T13:36:45.752Z,99971.88
2019-05-02T13:41:49.520Z,99960.03
2019-05-02T13:46:53.561Z,99966.69
2019-05-02T13:51:57.171Z,99950.09
2019-05-02T13:57:02.967Z,99948.58
2019-05-02T14:02:07.341Z,99939.66
2019-05-02T14:07:13.233Z,99939.99
2019-05-02T14:12:17.643Z,99939.99
2019-05-02T14:17:24.381Z,99931.39
2019-05-02T14:22:29.473Z,99920.98
2019-05-02T14:27:33.038Z,99931.25
2019-05-02T14:32:36.475Z,99924.77
2019-05-02T14:37:42.130Z,99919.79
2019-05-02T14:42:45.658Z,99920.02
2019-05-02T14:47:49.771Z,99941.45
2019-05-02T14:52:55.937Z,99963.16
2019-05-02T14:58:04.086Z,99966.86
2019-05-02T15:03:06.061Z,99968.53
2019-05-02T15:08:09.477Z,99970.74
2019-05-02T15:13:12.911Z,99967.19
2019-05-02T15:18:17.622Z,99964.80
2019-05-02T15:23:22.720Z,99963.52
2019-05-02T15:28:31.948Z,99961.80
2019-05-02T15:33:32.184Z,99961.02
2019-05-02T15:38:37.143Z,99962.59
2019-05-02T15:43:44.208Z,99966.81
2019-05-02T15:48:46.807Z,99965.20
2019-05-02T15:54:05.377Z,99970.03
2019-05-02T15:59:04.759Z,99963.43
2019-05-02T16:04:06.784Z,99965.91
2019-05-02T16:09:11.864Z,99955.84
2019-05-02T16:14:15.415Z,99959.27
2019-05-02T16:19:24.671Z,99958.52
2019-05-02T16:24:25.464Z,99953.97
2019-05-02T16:29:29.234Z,99953.89
2019-05-02T16:34:35.303Z,99950.50
2019-05-02T16:39:42.595Z,99945.58
2019-05-02T16:44:43.160Z,99943.25
2019-05-02T16:49:47.936Z,99944.41
2019-05-02T16:54:52.638Z,99941.72
2019-05-02T17:00:01.324Z,99947.86
2019-05-02T17:05:08.267Z,99944.78
2019-05-02T17:10:14.813Z,99941.09
2019-05-02T17:15:31.277Z,99936.31
2019-05-02T17:20:33.398Z,99942.67
2019-05-02T17:25:36.838Z,99936.73
2019-05-02T17:30:41.107Z,99942.55
2019-05-02T17:35:49.478Z,99948.30
2019-05-02T17:40:54.122Z,99947.45
2019-05-02T17:45:56.406Z,99956.63
2019-05-02T17:51:04.408Z,99951.66
2019-05-02T17:56:14.661Z,99957.78
2019-05-02T18:01:14.715Z,99961.98
2019-05-02T18:06:30.108Z,99961.73
2019-05-02T18:11:23.505Z,99956.72
2019-05-02T18:16:27.002Z,99964.57
2019-05-02T18:21:32.324Z,99960.45
2019-05-02T18:26:35.981Z,99964.98
2019-05-02T18:31:43.431Z,99968.43
2019-05-02T18:36:44.717Z,99965.11
2019-05-02T18:41:48.355Z,99973.88
2019-05-02T18:46:51.985Z,99973.36
2019-05-02T18:51:57.363Z,99977.09
2019-05-02T18:57:02.480Z,99981.93
2019-05-02T19:02:05.964Z,99979.11
2019-05-02T19:07:12.923Z,99984.95
2019-05-02T19:12:22.389Z,99994.24
2019-05-02T19:17:21.829Z,99996.92
2019-05-02T19:22:25.309Z,99992.70
2019-05-02T19:27:46.627Z,99999.89
2019-05-02T19:32:50.192Z,99996.23
2019-05-02T19:37:55.085Z,99999.95
2019-05-02T19:43:03.374Z,99996.16
2019-05-02T19:48:04.120Z,100005.39
2019-05-02T19:53:14.818Z,100009.87
2019-05-02T19:58:13.222Z,100013.80
2019-05-02T20:03:21.568Z,100008.68
2019-05-02T20:08:24.528Z,100015.47
2019-05-02T20:13:29.651Z,100012.06
2019-05-02T20:18:34.971Z,100011.98
2019-05-02T20:23:37.899Z,100007.91
2019-05-02T20:28:42.921Z,100015.34
2019-05-02T20:33:46.347Z,100024.18
2019-05-02T20:38:49.820Z,100035.36
2019-05-02T20:43:53.284Z,100035.48
2019-05-02T20:48:56.823Z,100029.63
2019-05-02T20:54:01.988Z,100033.91
2019-05-02T20:59:05.704Z,100029.68
2019-05-02T21:04:09.176Z,100035.64
2019-05-02T21:09:22.091Z,100038.89
2019-05-02T21:14:25.227Z,100050.19
2019-05-02T21:19:28.717Z,100053.89
2019-05-02T21:24:32.736Z,100051.98
2019-05-02T21:29:36.270Z,100056.75
2019-05-02T21:34:42.337Z,100058.63
2019-05-02T21:39:45.364Z,100061.34
2019-05-02T21:44:48.790Z,100066.12
2019-05-02T21:49:56.609Z,100065.66
2019-05-02T21:55:01.959Z,100066.30
2019-05-02T22:00:16.128Z,100067.30
2019-05-02T22:05:22.868Z,100066.73
2019-05-02T22:10:26.256Z,100072.34
2019-05-02T22:15:29.691Z,100076.67
2019-05-02T22:20:33.118Z,100076.41
2019-05-02T22:25:36.715Z,100078.29
2019-05-02T22:30:40.306Z,100084.85
2019-05-02T22:35:44.070Z,100086.87
2019-05-02T22:40:49.124Z,100098.20
2019-05-02T22:45:52.538Z,100097.72
2019-05-02T22:50:55.934Z,100107.45
2019-05-02T22:55:59.396Z,100112.06
2019-05-02T23:01:04.130Z,100115.89
2019-05-02T23:06:07.559Z,100129.28
2019-05-02T23:11:12.863Z,100144.36
2019-05-02T23:16:16.232Z,100144.88
2019-05-02T23:21:21.705Z,100151.20
2019-05-02T23:26:38.730Z,100145.77
2019-05-02T23:31:42.335Z,100158.02
2019-05-02T23:36:45.787Z,100158.20
2019-05-02T23:41:49.228Z,100158.09
2019-05-02T23:46:52.667Z,100167.31
2019-05-02T23:51:56.113Z,100165.31
2019-05-02T23:56:59.614Z,100163.05
